Details From TBPB - Barbados/Grantley Adams Intl
To TQPF - Anguilla/Wallblake
Flight Number -
Tags generated
Created
Modified
Stats Distance 374 nm / 693 km
Max Altitude 30,400 ft / 9,266 m
Waypoints 6
Social Downloads 1
Likes 0
Share VATSIM

Download

Looking for another format? Having issues loading an existing format? Contact us
Advertisement - Login to hide

Notes

Basic altitude profile: - Ascent Rate: 1000ft/min - Ascent Speed: 100kts - Cruise Altitude: 1000ft - Cruise Speed: 140kts - Descent Rate: 1500ft/min - Descent Speed: 120kts Options: - Use NATs: no - Use PACOTS: no - Use low airways: yes - Use high airways: no

Route

TBPB BIRNO A632 ANU TQPF

ID Type Via Altitude Latitude Longitude Leg Dist Tot Dist Heading (true) Name
O TBPB APT - 0 ft / 0 m 13.07461˚ -59.49221˚ - 0 nm - Barbados/Grantley Adams Intl
BIRNO FIX - 30,400 ft / 9,266 m 14.36519˚ -60.21067˚ 88 nm 88 nm 332° / 332° -
TASAR FIX A632 (AWY-LO) 24,500 ft / 7,468 m 15.66778˚ -60.95444˚ 89 nm 177 nm 331° / 331° -
MEDUS FIX A632 (AWY-LO) 24,500 ft / 7,468 m 16.73933˚ -61.57453˚ 73 nm 251 nm 331° / 331° -
ANU NDB A632 (AWY-LO) 20,700 ft / 6,309 m 17.12588˚ -61.80017˚ 26 nm 277 nm 331° / 331° V C BIRD NDB
O TQPF APT - 0 ft / 0 m 18.20480˚ -63.05386˚ 96 nm 374 nm 312° / 312° Anguilla/Wallblake

Altitude Profile

Advertisement - Login to hide

Weather


0- 5 10 15 20 25 30 35+ Temperature / ° C

Clouds and Precipitation
Forecast for 2017-12-18 00:00 UTC. Updated 2 hours ago

Ground ~20,000 ft ~40,000 ft Winds

TBPB

Details ICAO TBPB (BGI)
Name Barbados/Grantley Adams Intl
Region Barbados
Timezone America/Barbados (UTC-4.0)
Stats Elevation 168 ft / 51 m (AMSL)
Location 13.074614° -59.492206°
Runways 1
Magnetic Variation 15.613° W

METAR

TBPB 172100Z 09015KT 9999 FEW018 27/22 Q1013 NOSIG

Decode

TAF

Not found

Departure Runways

ID Width Length Bearing (true) Bearing (mag) Surface Threshold Offset Overrun Length
09 148 ft / 45 m 11,924 ft / 3,635 m 75.84° 91.45° Asphalt 0 ft / 0 m 174 ft / 53 m
27 148 ft / 45 m 11,924 ft / 3,635 m 255.85° 271.46° Asphalt 0 ft / 0 m 0 ft / 0 m

TQPF

Details ICAO TQPF (AXA)
Name Anguilla/Wallblake
Region UK (Anguilla)
Timezone America/Anguilla (UTC-4.0)
Stats Elevation 127 ft / 39 m (AMSL)
Location 18.204798° -63.053855°
Runways 1
Magnetic Variation 14.348° W

METAR

TQPF 172100Z 05005KT 9999 SCT017 25/23 Q1016

Decode

TAF

TAF TQPF 171700Z 1718/1818 09010KT 9999 SCT020

Decode

Destination Runways

ID Width Length Bearing (true) Bearing (mag) Surface Threshold Offset Overrun Length
10 98 ft / 30 m 5,454 ft / 1,662 m 90.65° 105.00° Asphalt 492 ft / 150 m 0 ft / 0 m
28 98 ft / 30 m 5,454 ft / 1,662 m 270.65° 285.00° Asphalt 492 ft / 150 m 0 ft / 0 m